createdAt,value
2022-10-08T00:01:01.971Z,23.31
2022-10-08T00:03:34.418Z,23.30
2022-10-08T00:06:08.011Z,23.28
2022-10-08T00:08:41.364Z,23.28
2022-10-08T00:11:14.481Z,23.28
2022-10-08T00:13:48.179Z,23.28
2022-10-08T00:16:21.972Z,23.27
2022-10-08T00:18:54.722Z,23.27
2022-10-08T00:21:28.158Z,23.26
2022-10-08T00:24:01.579Z,23.26
2022-10-08T00:26:33.957Z,23.26
2022-10-08T00:29:08.112Z,23.25
2022-10-08T00:31:41.080Z,23.23
2022-10-08T00:34:13.567Z,23.23
2022-10-08T00:36:44.812Z,23.22
2022-10-08T00:39:17.903Z,23.23
2022-10-08T00:41:51.616Z,23.23
2022-10-08T00:44:54.365Z,23.21
2022-10-08T00:47:34.166Z,23.20
2022-10-08T00:50:04.940Z,23.21
2022-10-08T00:52:40.194Z,23.19
2022-10-08T00:55:14.453Z,23.19
2022-10-08T00:57:45.299Z,23.20
2022-10-08T01:00:19.576Z,23.21
2022-10-08T01:02:50.538Z,23.20
2022-10-08T01:05:30.392Z,23.20
2022-10-08T01:08:10.131Z,23.19
2022-10-08T01:10:42.876Z,23.19
2022-10-08T01:13:24.492Z,23.17
2022-10-08T01:16:02.308Z,23.17
2022-10-08T01:18:41.255Z,23.18
2022-10-08T01:21:16.028Z,23.17
2022-10-08T01:24:09.173Z,23.17
2022-10-08T01:27:03.959Z,23.16
2022-10-08T01:29:41.583Z,23.17
2022-10-08T01:32:15.765Z,23.18
2022-10-08T01:34:50.443Z,23.17
2022-10-08T01:37:26.720Z,23.18
2022-10-08T01:40:01.809Z,23.19
2022-10-08T01:42:35.924Z,23.19
2022-10-08T01:45:12.307Z,23.19
2022-10-08T01:47:45.675Z,23.20
2022-10-08T01:50:21.314Z,23.21
2022-10-08T01:52:56.368Z,23.22
2022-10-08T01:55:32.454Z,23.23
2022-10-08T01:58:08.264Z,23.22
2022-10-08T02:00:42.164Z,23.22
2022-10-08T02:03:13.455Z,23.23
2022-10-08T02:05:50.545Z,23.23
2022-10-08T02:08:23.358Z,23.23
2022-10-08T02:10:54.585Z,23.22
2022-10-08T02:13:25.873Z,23.23
2022-10-08T02:16:06.983Z,23.22
2022-10-08T02:18:43.177Z,23.18
2022-10-08T02:21:21.726Z,23.21
2022-10-08T02:24:01.944Z,23.25
2022-10-08T02:26:40.405Z,23.23
2022-10-08T02:29:16.444Z,23.22
2022-10-08T02:31:51.814Z,23.21
2022-10-08T02:34:30.794Z,23.19
2022-10-08T02:37:05.720Z,23.18
2022-10-08T02:39:39.641Z,23.17
2022-10-08T02:42:15.158Z,23.17
2022-10-08T02:44:53.084Z,23.15
2022-10-08T02:47:29.159Z,23.13
2022-10-08T02:50:03.053Z,23.13
2022-10-08T02:52:39.515Z,23.12
2022-10-08T02:55:20.693Z,23.12
2022-10-08T02:57:58.752Z,23.12
2022-10-08T03:00:35.391Z,23.11
2022-10-08T03:03:12.569Z,23.12
2022-10-08T03:05:45.067Z,23.13
2022-10-08T03:08:17.285Z,23.14
2022-10-08T03:10:48.742Z,23.14
2022-10-08T03:13:21.104Z,23.15
2022-10-08T03:15:54.940Z,23.13
2022-10-08T03:18:27.278Z,23.11
2022-10-08T03:20:58.387Z,23.10
2022-10-08T03:23:29.489Z,23.09
2022-10-08T03:26:00.095Z,23.10
2022-10-08T03:28:30.844Z,23.07
2022-10-08T03:31:04.875Z,23.06
2022-10-08T03:33:35.881Z,23.05
2022-10-08T03:36:08.021Z,23.05
2022-10-08T03:38:38.650Z,23.04
2022-10-08T03:41:09.867Z,23.03
2022-10-08T03:43:41.089Z,23.02
2022-10-08T03:46:14.385Z,23.03
2022-10-08T03:48:45.176Z,23.04
2022-10-08T03:51:16.706Z,23.03
2022-10-08T03:53:47.846Z,23.02
2022-10-08T03:56:20.617Z,23.02
2022-10-08T03:58:56.827Z,23.03
2022-10-08T04:01:28.573Z,23.03
2022-10-08T04:03:59.254Z,23.04
2022-10-08T04:06:29.926Z,23.04
2022-10-08T04:09:01.259Z,23.04
2022-10-08T04:11:32.220Z,23.05
2022-10-08T04:14:04.209Z,23.05
2022-10-08T04:16:34.830Z,23.03
2022-10-08T04:19:05.404Z,23.03
2022-10-08T04:21:36.026Z,23.02
2022-10-08T04:24:07.684Z,23.03
2022-10-08T04:26:38.448Z,23.02
2022-10-08T04:29:12.483Z,23.02
2022-10-08T04:31:43.562Z,23.00
2022-10-08T04:34:14.840Z,23.00
2022-10-08T04:36:45.471Z,23.00
2022-10-08T04:39:16.097Z,22.98
2022-10-08T04:41:46.688Z,22.97
2022-10-08T04:44:17.373Z,22.97
2022-10-08T04:46:48.127Z,22.97
2022-10-08T04:49:19.669Z,22.96
2022-10-08T04:51:50.265Z,22.95
2022-10-08T04:54:21.042Z,22.94
2022-10-08T04:56:51.670Z,22.96
2022-10-08T04:59:22.285Z,22.96
2022-10-08T05:01:56.930Z,22.97
2022-10-08T05:04:28.064Z,22.97
2022-10-08T05:06:58.825Z,22.97
2022-10-08T05:09:29.462Z,22.96
2022-10-08T05:12:00.199Z,22.96
2022-10-08T05:14:30.843Z,22.96
2022-10-08T05:17:01.492Z,22.96
2022-10-08T05:19:32.091Z,22.95
2022-10-08T05:22:02.740Z,22.95
2022-10-08T05:24:34.038Z,22.93
2022-10-08T05:27:04.830Z,22.93
2022-10-08T05:29:35.448Z,22.94
2022-10-08T05:32:06.105Z,22.94
2022-10-08T05:34:36.737Z,22.93
2022-10-08T05:37:07.377Z,22.93
2022-10-08T05:39:38.110Z,22.93
2022-10-08T05:42:09.158Z,22.92
2022-10-08T05:44:42.397Z,22.94
2022-10-08T05:47:15.482Z,22.93
2022-10-08T05:49:46.447Z,22.93
2022-10-08T05:52:17.207Z,22.93
2022-10-08T05:54:47.908Z,22.92
2022-10-08T05:57:19.285Z,22.92
2022-10-08T05:59:50.167Z,22.92
2022-10-08T06:02:21.377Z,22.91
2022-10-08T06:04:52.941Z,22.92
2022-10-08T06:07:23.967Z,22.92
2022-10-08T06:09:54.853Z,22.92
2022-10-08T06:12:25.659Z,22.91
2022-10-08T06:14:56.673Z,22.90
2022-10-08T06:17:27.511Z,22.90
2022-10-08T06:19:58.166Z,22.92
2022-10-08T06:22:28.951Z,22.94
2022-10-08T06:24:59.613Z,23.03
2022-10-08T06:27:30.456Z,23.04
2022-10-08T06:30:01.246Z,23.04
2022-10-08T06:32:32.047Z,23.03
2022-10-08T06:35:02.732Z,23.02
2022-10-08T06:37:33.464Z,23.02
2022-10-08T06:40:04.354Z,23.00
2022-10-08T06:42:35.300Z,22.99
2022-10-08T06:45:07.004Z,23.01
2022-10-08T06:47:37.821Z,23.03
2022-10-08T06:50:10.752Z,23.03
2022-10-08T06:52:41.690Z,23.04
2022-10-08T06:55:12.364Z,23.04
2022-10-08T06:57:43.181Z,23.05
2022-10-08T07:00:15.577Z,23.06
2022-10-08T07:02:46.565Z,23.06
2022-10-08T07:05:17.891Z,23.06
2022-10-08T07:07:48.647Z,23.06
2022-10-08T07:10:19.825Z,23.08
2022-10-08T07:12:50.874Z,23.14
2022-10-08T07:15:21.925Z,23.13
2022-10-08T07:17:52.655Z,23.12
2022-10-08T07:20:23.540Z,23.13
2022-10-08T07:22:54.452Z,23.13
2022-10-08T07:25:25.402Z,23.13
2022-10-08T07:27:56.244Z,23.15
2022-10-08T07:30:27.062Z,23.16
2022-10-08T07:33:00.383Z,23.16
2022-10-08T07:35:32.830Z,23.16
2022-10-08T07:38:03.567Z,23.17
2022-10-08T07:40:36.152Z,23.16
2022-10-08T07:43:06.859Z,23.11
2022-10-08T07:45:38.895Z,23.12
2022-10-08T07:48:09.746Z,23.10
2022-10-08T07:50:40.412Z,23.10
2022-10-08T07:53:11.167Z,23.11
2022-10-08T07:55:41.991Z,23.11
2022-10-08T07:58:13.806Z,23.13
2022-10-08T08:00:44.663Z,23.13
2022-10-08T08:03:16.882Z,23.15
2022-10-08T08:05:47.723Z,23.16
2022-10-08T08:08:18.479Z,23.16
2022-10-08T08:10:49.208Z,23.18
2022-10-08T08:13:19.969Z,23.18
2022-10-08T08:15:56.725Z,23.18
2022-10-08T08:18:29.191Z,23.20
2022-10-08T08:21:04.542Z,23.19
2022-10-08T08:23:37.087Z,23.17
2022-10-08T08:26:09.888Z,23.16
2022-10-08T08:28:41.502Z,23.16
2022-10-08T08:31:16.229Z,23.16
2022-10-08T08:33:51.337Z,23.16
2022-10-08T08:36:25.398Z,23.17
2022-10-08T08:38:56.875Z,23.20
2022-10-08T08:41:41.766Z,23.24
2022-10-08T08:44:19.353Z,23.26
2022-10-08T08:46:55.081Z,23.27
2022-10-08T08:49:34.677Z,23.29
2022-10-08T08:52:07.837Z,23.29
2022-10-08T08:54:38.594Z,23.25
2022-10-08T08:57:32.270Z,23.27
2022-10-08T09:00:07.009Z,23.26
2022-10-08T09:02:46.702Z,23.25
2022-10-08T09:05:20.266Z,23.24
2022-10-08T09:07:57.999Z,23.25
2022-10-08T09:10:36.837Z,23.26
2022-10-08T09:13:16.577Z,23.26
2022-10-08T09:15:46.387Z,23.27
2022-10-08T09:18:18.356Z,23.25
2022-10-08T09:20:49.482Z,23.28
2022-10-08T09:23:22.141Z,23.30
2022-10-08T09:25:56.954Z,23.33
2022-10-08T09:28:46.057Z,23.35
2022-10-08T09:31:26.591Z,23.37
2022-10-08T09:34:00.088Z,23.39
2022-10-08T09:36:42.798Z,23.41
2022-10-08T09:39:21.085Z,23.44
2022-10-08T09:42:17.332Z,23.47
2022-10-08T09:44:50.189Z,23.51
2022-10-08T09:47:22.829Z,23.52
2022-10-08T09:50:06.364Z,23.53
2022-10-08T09:52:40.128Z,23.53
2022-10-08T09:55:28.213Z,23.56
2022-10-08T09:58:03.116Z,23.57
2022-10-08T10:00:36.827Z,23.59
2022-10-08T10:03:17.145Z,23.61
2022-10-08T10:05:54.624Z,23.62
2022-10-08T10:08:45.917Z,23.63
2022-10-08T10:11:26.570Z,23.63
2022-10-08T10:13:58.785Z,23.63
2022-10-08T10:16:36.143Z,23.64
2022-10-08T10:19:13.729Z,23.64
2022-10-08T10:21:51.190Z,23.65
2022-10-08T10:24:37.402Z,23.66
2022-10-08T10:27:11.468Z,23.65
2022-10-08T10:29:54.310Z,23.66
2022-10-08T10:32:33.524Z,23.68
2022-10-08T10:35:12.148Z,23.69
2022-10-08T10:37:51.165Z,23.70
2022-10-08T10:40:42.301Z,23.71
2022-10-08T10:43:33.021Z,23.71
2022-10-08T10:46:19.808Z,23.71
2022-10-08T10:48:50.957Z,23.73
2022-10-08T10:51:46.798Z,23.75
2022-10-08T10:54:37.516Z,23.75
2022-10-08T10:57:13.825Z,23.77
2022-10-08T10:59:49.745Z,23.79
2022-10-08T11:02:27.762Z,23.79
2022-10-08T11:05:07.420Z,23.78
2022-10-08T11:07:45.435Z,23.78
2022-10-08T11:10:22.108Z,23.77
2022-10-08T11:13:00.497Z,23.77
2022-10-08T11:15:38.438Z,23.78
2022-10-08T11:18:20.808Z,23.80
2022-10-08T11:21:06.302Z,23.81
2022-10-08T11:23:54.845Z,23.80
2022-10-08T11:26:33.451Z,23.80
2022-10-08T11:29:16.301Z,23.85
2022-10-08T11:31:50.111Z,23.85
2022-10-08T11:34:26.764Z,23.84
2022-10-08T11:37:10.183Z,23.84
2022-10-08T11:39:46.510Z,23.85
2022-10-08T11:42:26.498Z,23.90
2022-10-08T11:45:13.774Z,23.94
2022-10-08T11:47:55.103Z,24.00
2022-10-08T11:50:33.059Z,24.07
2022-10-08T11:53:21.437Z,24.12
2022-10-08T11:55:56.674Z,24.18
2022-10-08T11:58:31.290Z,24.23
2022-10-08T12:01:07.224Z,24.28
2022-10-08T12:03:41.071Z,24.33
2022-10-08T12:06:20.183Z,24.39
2022-10-08T12:08:57.561Z,24.45
2022-10-08T12:11:50.043Z,24.50
2022-10-08T12:14:46.015Z,24.56
2022-10-08T12:17:17.812Z,24.63
2022-10-08T12:20:22.651Z,24.69
2022-10-08T12:23:07.658Z,24.72
2022-10-08T12:25:42.594Z,24.76
2022-10-08T12:28:50.381Z,24.82
2022-10-08T12:31:30.926Z,24.82
2022-10-08T12:34:04.008Z,24.85
2022-10-08T12:36:47.852Z,24.88
2022-10-08T12:39:36.822Z,24.91
2022-10-08T12:42:29.128Z,24.95
2022-10-08T12:45:15.187Z,24.99
2022-10-08T12:47:55.448Z,25.03
2022-10-08T12:50:46.028Z,25.06
2022-10-08T12:53:18.933Z,25.11
2022-10-08T12:55:53.636Z,25.17
2022-10-08T12:58:29.246Z,25.24
2022-10-08T13:01:04.212Z,25.33
2022-10-08T13:03:35.456Z,25.40
2022-10-08T13:06:30.384Z,25.43
2022-10-08T13:09:13.693Z,25.47
2022-10-08T13:11:44.831Z,25.54
2022-10-08T13:14:28.177Z,25.61
2022-10-08T13:16:59.998Z,25.68
2022-10-08T13:19:33.634Z,25.75
2022-10-08T13:22:08.822Z,25.82
2022-10-08T13:24:44.443Z,25.88
2022-10-08T13:27:29.790Z,25.91
2022-10-08T13:30:01.387Z,25.93
2022-10-08T13:32:35.253Z,25.96
2022-10-08T13:35:21.115Z,25.98
2022-10-08T13:37:55.639Z,26.03
2022-10-08T13:40:26.765Z,26.10
2022-10-08T13:42:59.579Z,26.16
2022-10-08T13:45:36.697Z,26.18
2022-10-08T13:48:12.114Z,26.20
2022-10-08T13:50:47.430Z,26.23
2022-10-08T13:53:20.430Z,26.25
2022-10-08T13:55:52.940Z,26.25
2022-10-08T13:58:24.076Z,26.32
2022-10-08T14:00:55.287Z,26.35
2022-10-08T14:03:26.587Z,26.38
2022-10-08T14:05:57.707Z,26.36
2022-10-08T14:08:31.554Z,26.39
2022-10-08T14:11:02.869Z,26.41
2022-10-08T14:13:33.624Z,26.43
2022-10-08T14:16:04.734Z,26.45
2022-10-08T14:18:35.688Z,26.48
2022-10-08T14:21:07.244Z,26.50
2022-10-08T14:23:38.151Z,26.51
2022-10-08T14:26:11.364Z,26.52
2022-10-08T14:28:42.075Z,26.53
2022-10-08T14:31:15.326Z,26.52
2022-10-08T14:33:46.360Z,26.51
2022-10-08T14:36:19.606Z,26.53
2022-10-08T14:38:50.496Z,26.55
2022-10-08T14:41:21.238Z,26.55
2022-10-08T14:43:52.373Z,26.55
2022-10-08T14:46:23.322Z,26.54
2022-10-08T14:48:54.112Z,26.54
2022-10-08T14:51:25.116Z,26.54
2022-10-08T14:53:55.999Z,26.51
2022-10-08T14:56:27.027Z,26.51
2022-10-08T14:58:57.937Z,26.50
2022-10-08T15:01:29.166Z,26.49
2022-10-08T15:04:00.073Z,26.43
2022-10-08T15:06:31.077Z,26.47
2022-10-08T15:09:01.922Z,26.47
2022-10-08T15:11:32.959Z,26.47
2022-10-08T15:14:03.804Z,26.47
2022-10-08T15:16:34.425Z,26.44
2022-10-08T15:19:07.793Z,26.46
2022-10-08T15:21:39.051Z,26.46
2022-10-08T15:24:10.411Z,26.45
2022-10-08T15:26:41.283Z,26.45
2022-10-08T15:29:12.220Z,26.44
2022-10-08T15:31:43.063Z,26.44
2022-10-08T15:34:18.868Z,26.43
2022-10-08T15:36:50.060Z,26.43
2022-10-08T15:39:21.496Z,26.43
2022-10-08T15:41:54.439Z,26.43
2022-10-08T15:44:27.535Z,26.42
2022-10-08T15:47:02.072Z,26.41
2022-10-08T15:49:39.213Z,26.39
2022-10-08T15:52:11.898Z,26.37
2022-10-08T15:54:43.830Z,26.36
2022-10-08T15:57:16.444Z,26.35
2022-10-08T15:59:47.389Z,26.33
2022-10-08T16:02:19.910Z,26.32
2022-10-08T16:04:52.228Z,26.31
2022-10-08T16:07:23.333Z,26.29
2022-10-08T16:09:54.045Z,26.28
2022-10-08T16:12:25.109Z,26.28
2022-10-08T16:14:55.898Z,26.27
2022-10-08T16:17:27.095Z,26.27
2022-10-08T16:19:57.990Z,26.26
2022-10-08T16:22:29.444Z,26.25
2022-10-08T16:25:00.283Z,26.24
2022-10-08T16:27:31.000Z,26.22
2022-10-08T16:30:01.914Z,26.20
2022-10-08T16:32:32.853Z,26.18
2022-10-08T16:35:03.661Z,26.16
2022-10-08T16:37:34.614Z,26.14
2022-10-08T16:40:05.836Z,26.14
2022-10-08T16:42:36.884Z,26.13
2022-10-08T16:45:09.364Z,26.12
2022-10-08T16:47:40.206Z,26.13
2022-10-08T16:50:12.462Z,26.19
2022-10-08T16:52:43.266Z,26.20
2022-10-08T16:55:15.164Z,26.16
2022-10-08T16:57:51.519Z,26.13
2022-10-08T17:00:23.147Z,26.10
2022-10-08T17:02:53.980Z,26.09
2022-10-08T17:05:24.888Z,26.07
2022-10-08T17:07:58.646Z,26.05
2022-10-08T17:10:31.624Z,26.05
2022-10-08T17:13:02.728Z,26.04
2022-10-08T17:15:33.654Z,26.03
2022-10-08T17:18:04.636Z,26.03
2022-10-08T17:20:35.862Z,26.01
2022-10-08T17:23:06.545Z,26.00
2022-10-08T17:25:37.248Z,25.99
2022-10-08T17:28:08.151Z,25.98
2022-10-08T17:30:39.242Z,25.98
2022-10-08T17:33:09.966Z,25.97
2022-10-08T17:35:40.924Z,25.95
2022-10-08T17:38:11.717Z,25.95
2022-10-08T17:40:42.589Z,25.94
2022-10-08T17:43:13.395Z,25.92
2022-10-08T17:45:44.259Z,25.91
2022-10-08T17:48:15.219Z,25.90
2022-10-08T17:50:45.908Z,25.90
2022-10-08T17:53:16.746Z,25.88
2022-10-08T17:55:47.915Z,25.88
2022-10-08T17:58:18.808Z,25.87
2022-10-08T18:00:49.721Z,25.86
2022-10-08T18:03:20.396Z,25.85
2022-10-08T18:06:00.040Z,25.85
2022-10-08T18:08:29.795Z,25.82
2022-10-08T18:11:04.257Z,25.77
2022-10-08T18:13:35.687Z,25.78
2022-10-08T18:16:07.889Z,25.77
2022-10-08T18:18:38.772Z,25.75
2022-10-08T18:21:10.933Z,25.74
2022-10-08T18:23:43.153Z,25.75
2022-10-08T18:26:19.609Z,25.76
2022-10-08T18:28:52.091Z,25.76
2022-10-08T18:31:24.426Z,25.75
2022-10-08T18:33:59.033Z,25.73
2022-10-08T18:36:30.968Z,25.72
2022-10-08T18:39:03.648Z,25.72
2022-10-08T18:41:38.296Z,25.71
2022-10-08T18:44:11.229Z,25.70
2022-10-08T18:46:44.746Z,25.69
2022-10-08T18:49:17.728Z,25.69
2022-10-08T18:51:50.157Z,25.68
2022-10-08T18:54:21.129Z,25.67
2022-10-08T18:56:52.108Z,25.66
2022-10-08T18:59:22.965Z,25.65
2022-10-08T19:01:59.018Z,25.65
2022-10-08T19:04:30.124Z,25.65
2022-10-08T19:07:01.236Z,25.65
2022-10-08T19:09:32.148Z,25.65
2022-10-08T19:12:03.089Z,25.64
2022-10-08T19:14:33.785Z,25.63
2022-10-08T19:17:04.430Z,25.62
2022-10-08T19:19:35.308Z,25.61
2022-10-08T19:22:07.855Z,25.60
2022-10-08T19:24:41.143Z,25.58
2022-10-08T19:27:12.223Z,25.58
2022-10-08T19:29:43.489Z,25.58
2022-10-08T19:32:14.450Z,25.57
2022-10-08T19:34:45.138Z,25.57
2022-10-08T19:37:15.886Z,25.56
2022-10-08T19:39:47.660Z,25.57
2022-10-08T19:42:18.392Z,25.56
2022-10-08T19:44:49.232Z,25.55
2022-10-08T19:47:20.916Z,25.54
2022-10-08T19:49:51.736Z,25.54
2022-10-08T19:52:22.521Z,25.54
2022-10-08T19:54:53.271Z,25.53
2022-10-08T19:57:23.967Z,25.53
2022-10-08T19:59:55.819Z,25.53
2022-10-08T20:02:26.797Z,25.53
2022-10-08T20:04:57.597Z,25.53
2022-10-08T20:07:28.435Z,25.54
2022-10-08T20:10:01.765Z,25.53
2022-10-08T20:12:32.416Z,25.54
2022-10-08T20:15:03.225Z,25.53
2022-10-08T20:17:33.863Z,25.51
2022-10-08T20:20:28.186Z,25.51
2022-10-08T20:22:54.660Z,25.50
2022-10-08T20:25:26.329Z,25.48
2022-10-08T20:27:57.180Z,25.49
2022-10-08T20:30:28.259Z,25.47
2022-10-08T20:32:59.077Z,25.46
2022-10-08T20:35:30.090Z,25.45
2022-10-08T20:38:00.787Z,25.45
2022-10-08T20:40:31.775Z,25.45
2022-10-08T20:43:02.401Z,25.47
2022-10-08T20:45:33.145Z,25.48
2022-10-08T20:48:03.885Z,25.48
2022-10-08T20:50:34.584Z,25.49
2022-10-08T20:53:05.361Z,25.49
2022-10-08T20:55:39.414Z,25.48
2022-10-08T20:58:10.131Z,25.47
2022-10-08T21:00:41.433Z,25.47
2022-10-08T21:03:12.109Z,25.47
2022-10-08T21:05:45.915Z,25.46
2022-10-08T21:08:16.749Z,25.42
2022-10-08T21:10:47.588Z,25.48
2022-10-08T21:13:18.323Z,25.47
2022-10-08T21:15:49.254Z,25.46
2022-10-08T21:18:20.109Z,25.43
2022-10-08T21:20:53.709Z,25.41
2022-10-08T21:23:24.504Z,25.38
2022-10-08T21:25:55.393Z,25.35
2022-10-08T21:28:26.283Z,25.33
2022-10-08T21:31:00.634Z,25.30
2022-10-08T21:33:37.592Z,25.29
2022-10-08T21:36:11.812Z,25.28
2022-10-08T21:38:42.874Z,25.27
2022-10-08T21:41:15.261Z,25.27
2022-10-08T21:43:47.645Z,25.26
2022-10-08T21:46:21.078Z,25.26
2022-10-08T21:48:56.488Z,25.24
2022-10-08T21:51:28.252Z,25.23
2022-10-08T21:54:00.732Z,25.23
2022-10-08T21:56:33.357Z,25.21
2022-10-08T21:59:06.275Z,25.19
2022-10-08T22:01:39.125Z,25.18
2022-10-08T22:04:11.817Z,25.15
2022-10-08T22:06:44.370Z,25.14
2022-10-08T22:09:17.765Z,25.13
2022-10-08T22:11:48.813Z,25.11
2022-10-08T22:14:20.362Z,25.09
2022-10-08T22:16:51.085Z,25.07
2022-10-08T22:19:22.033Z,25.06
2022-10-08T22:21:52.702Z,25.06
2022-10-08T22:24:23.326Z,25.06
2022-10-08T22:26:54.141Z,25.04
2022-10-08T22:29:25.100Z,25.03
2022-10-08T22:31:56.117Z,25.02
2022-10-08T22:34:26.967Z,25.01
2022-10-08T22:36:57.626Z,25.01
2022-10-08T22:39:28.730Z,25.01
2022-10-08T22:41:59.452Z,25.01
2022-10-08T22:44:30.227Z,24.99
2022-10-08T22:47:00.964Z,24.98
2022-10-08T22:49:31.579Z,24.97
2022-10-08T22:52:02.672Z,24.95
2022-10-08T22:54:33.403Z,24.93
2022-10-08T22:57:04.229Z,24.92
2022-10-08T22:59:34.903Z,24.92
2022-10-08T23:02:05.646Z,24.91
2022-10-08T23:04:36.440Z,24.89
2022-10-08T23:07:07.091Z,24.85
2022-10-08T23:09:38.150Z,24.87
2022-10-08T23:12:08.992Z,24.86
2022-10-08T23:14:39.594Z,24.85
2022-10-08T23:17:10.336Z,24.84
2022-10-08T23:19:41.070Z,24.82
2022-10-08T23:22:11.752Z,24.81
2022-10-08T23:24:42.406Z,24.81
2022-10-08T23:27:13.079Z,24.78
2022-10-08T23:29:43.749Z,24.77
2022-10-08T23:32:14.444Z,24.77
2022-10-08T23:34:45.397Z,24.75
2022-10-08T23:37:16.544Z,24.73
2022-10-08T23:39:47.165Z,24.72
2022-10-08T23:42:18.040Z,24.70
2022-10-08T23:44:48.666Z,24.69
2022-10-08T23:47:19.323Z,24.67
2022-10-08T23:49:49.926Z,24.66
2022-10-08T23:52:20.971Z,24.66
2022-10-08T23:54:51.622Z,24.67
2022-10-08T23:57:22.255Z,24.67
2022-10-08T23:59:52.944Z,24.66
